createdAt,value
2016-06-23T00:00:52.830Z,0
2016-06-23T00:01:52.240Z,0
2016-06-23T00:02:52.254Z,0
2016-06-23T00:03:51.669Z,0
2016-06-23T00:04:51.680Z,0
2016-06-23T00:05:52.273Z,0
2016-06-23T00:06:52.933Z,0
2016-06-23T00:07:52.910Z,0
2016-06-23T00:08:52.314Z,0
2016-06-23T00:09:51.747Z,0
2016-06-23T00:10:52.938Z,0
2016-06-23T00:11:52.346Z,0
2016-06-23T00:12:51.162Z,0
2016-06-23T00:13:52.366Z,0
2016-06-23T00:14:52.379Z,0
2016-06-23T00:15:51.790Z,0
2016-06-23T00:16:51.214Z,0
2016-06-23T00:17:51.813Z,0
2016-06-23T00:18:52.430Z,0
2016-06-23T00:19:51.837Z,0
2016-06-23T00:20:53.273Z,0
2016-06-23T00:21:52.463Z,0
2016-06-23T00:22:52.506Z,0
2016-06-23T00:23:52.479Z,0
2016-06-23T00:24:51.887Z,0
2016-06-23T00:25:52.496Z,0
2016-06-23T00:26:51.307Z,0
2016-06-23T00:27:53.111Z,0
2016-06-23T00:28:52.556Z,0
2016-06-23T00:29:52.550Z,0
2016-06-23T00:30:51.357Z,0
2016-06-23T00:31:52.579Z,0
2016-06-23T00:32:51.377Z,0
2016-06-23T00:33:52.587Z,0
2016-06-23T00:34:52.011Z,0
2016-06-23T00:35:52.602Z,0
2016-06-23T00:36:52.617Z,0
2016-06-23T00:37:52.028Z,0
2016-06-23T00:38:52.058Z,0
2016-06-23T00:39:52.648Z,0
2016-06-23T00:40:52.088Z,0
2016-06-23T00:41:52.217Z,0
2016-06-23T00:42:52.691Z,0
2016-06-23T00:43:52.088Z,0
2016-06-23T00:44:52.110Z,0
2016-06-23T00:45:52.139Z,0
2016-06-23T00:46:52.741Z,0
2016-06-23T00:47:52.745Z,0
2016-06-23T00:48:52.766Z,0
2016-06-23T00:49:53.392Z,0
2016-06-23T00:50:52.763Z,0
2016-06-23T00:51:52.778Z,0
2016-06-23T00:52:52.196Z,0
2016-06-23T00:53:51.600Z,0
2016-06-23T00:54:52.828Z,0
2016-06-23T00:55:52.235Z,0
2016-06-23T00:56:52.837Z,0
2016-06-23T00:57:52.832Z,0
2016-06-23T00:58:52.844Z,0
2016-06-23T00:59:52.271Z,0
2016-06-23T01:00:52.275Z,0
2016-06-23T01:01:52.900Z,0
2016-06-23T01:02:52.898Z,0
2016-06-23T01:03:52.307Z,0
2016-06-23T01:04:52.913Z,0
2016-06-23T01:05:52.941Z,0
2016-06-23T01:06:51.746Z,0
2016-06-23T01:07:52.695Z,0
2016-06-23T01:08:53.910Z,0
2016-06-23T01:09:52.588Z,0
2016-06-23T01:10:52.711Z,0
2016-06-23T01:11:54.001Z,0
2016-06-23T01:12:52.761Z,0
2016-06-23T01:13:53.297Z,0
2016-06-23T01:14:51.841Z,0
2016-06-23T01:15:52.439Z,0
2016-06-23T01:16:52.453Z,0
2016-06-23T01:17:52.471Z,0
2016-06-23T01:18:53.082Z,0
2016-06-23T01:19:53.676Z,0
2016-06-23T01:20:53.695Z,0
2016-06-23T01:21:52.516Z,0
2016-06-23T01:22:51.923Z,0
2016-06-23T01:23:53.162Z,0
2016-06-23T01:24:53.174Z,0
2016-06-23T01:25:52.533Z,0
2016-06-23T01:26:53.769Z,0
2016-06-23T01:27:53.182Z,0
2016-06-23T01:28:52.591Z,0
2016-06-23T01:29:52.588Z,0
2016-06-23T01:30:52.606Z,0
2016-06-23T01:31:52.614Z,0
2016-06-23T01:32:53.234Z,0
2016-06-23T01:33:52.634Z,0
2016-06-23T01:34:53.248Z,0
2016-06-23T01:35:53.274Z,0
2016-06-23T01:36:52.659Z,0
2016-06-23T01:37:53.883Z,0
2016-06-23T01:38:52.689Z,0
2016-06-23T01:39:52.702Z,0
2016-06-23T01:40:53.907Z,0
2016-06-23T01:41:53.298Z,0
2016-06-23T01:42:52.736Z,0
2016-06-23T01:43:53.361Z,0
2016-06-23T01:44:53.345Z,0
2016-06-23T01:45:53.964Z,0
2016-06-23T01:46:53.375Z,0
2016-06-23T01:47:52.786Z,0
2016-06-23T01:48:52.789Z,0
2016-06-23T01:49:53.403Z,0
2016-06-23T01:50:53.423Z,0
2016-06-23T01:51:52.820Z,0
2016-06-23T01:52:53.459Z,0
2016-06-23T01:53:52.854Z,0
2016-06-23T01:54:52.856Z,0
2016-06-23T01:55:52.864Z,0
2016-06-23T01:56:53.486Z,0
2016-06-23T01:57:54.085Z,0
2016-06-23T01:58:54.106Z,0
2016-06-23T01:59:52.334Z,0
2016-06-23T02:00:53.511Z,0
2016-06-23T02:01:53.525Z,0
2016-06-23T02:02:53.571Z,0
2016-06-23T02:03:52.943Z,0
2016-06-23T02:04:52.972Z,0
2016-06-23T02:05:52.390Z,0
2016-06-23T02:06:53.583Z,0
2016-06-23T02:07:52.394Z,0
2016-06-23T02:08:53.018Z,0
2016-06-23T02:09:53.618Z,0
2016-06-23T02:10:53.044Z,0
2016-06-23T02:11:54.248Z,0
2016-06-23T02:12:53.050Z,0
2016-06-23T02:13:54.270Z,0
2016-06-23T02:14:53.124Z,0
2016-06-23T02:15:52.499Z,0
2016-06-23T02:16:53.104Z,0
2016-06-23T02:17:54.324Z,0
2016-06-23T02:18:53.745Z,0
2016-06-23T02:19:53.733Z,0
2016-06-23T02:20:53.756Z,0
2016-06-23T02:21:54.333Z,0
2016-06-23T02:22:54.365Z,0
2016-06-23T02:23:52.571Z,0
2016-06-23T02:24:52.590Z,0
2016-06-23T02:25:53.195Z,0
2016-06-23T02:26:54.421Z,0
2016-06-23T02:27:53.211Z,0
2016-06-23T02:28:53.834Z,0
2016-06-23T02:29:53.848Z,0
2016-06-23T02:30:53.235Z,0
2016-06-23T02:31:53.275Z,0
2016-06-23T02:32:53.263Z,0
2016-06-23T02:33:53.264Z,0
2016-06-23T02:34:52.681Z,0
2016-06-23T02:35:53.293Z,0
2016-06-23T02:36:53.307Z,0
2016-06-23T02:37:54.523Z,0
2016-06-23T02:38:53.924Z,0
2016-06-23T02:39:53.938Z,0
2016-06-23T02:40:53.348Z,0
2016-06-23T02:41:52.754Z,0
2016-06-23T02:42:53.362Z,0
2016-06-23T02:43:53.395Z,0
2016-06-23T02:44:53.414Z,0
2016-06-23T02:45:54.822Z,0
2016-06-23T02:46:54.012Z,0
2016-06-23T02:47:53.422Z,0
2016-06-23T02:48:54.629Z,0
2016-06-23T02:49:53.477Z,0
2016-06-23T02:50:54.044Z,0
2016-06-23T02:51:52.859Z,0
2016-06-23T02:52:54.074Z,0
2016-06-23T02:53:52.889Z,0
2016-06-23T02:54:53.506Z,0
2016-06-23T02:55:52.911Z,0
2016-06-23T02:56:54.128Z,0
2016-06-23T02:57:52.921Z,0
2016-06-23T02:58:53.545Z,0
2016-06-23T02:59:53.547Z,0
2016-06-23T03:00:54.748Z,0
2016-06-23T03:01:53.577Z,0
2016-06-23T03:02:53.602Z,0
2016-06-23T03:03:54.183Z,0
2016-06-23T03:04:53.608Z,0
2016-06-23T03:05:53.613Z,0
2016-06-23T03:06:54.831Z,0
2016-06-23T03:07:54.842Z,0
2016-06-23T03:08:53.649Z,0
2016-06-23T03:09:53.664Z,0
2016-06-23T03:10:54.287Z,0
2016-06-23T03:11:54.868Z,0
2016-06-23T03:12:53.086Z,0
2016-06-23T03:13:54.899Z,0
2016-06-23T03:14:54.312Z,0
2016-06-23T03:15:54.327Z,0
2016-06-23T03:16:54.929Z,0
2016-06-23T03:17:53.743Z,0
2016-06-23T03:18:54.371Z,0
2016-06-23T03:19:54.957Z,0
2016-06-23T03:20:53.804Z,0
2016-06-23T03:21:54.384Z,0
2016-06-23T03:22:53.791Z,0
2016-06-23T03:23:53.796Z,0
2016-06-23T03:24:53.818Z,0
2016-06-23T03:25:55.038Z,0
2016-06-23T03:26:53.839Z,0
2016-06-23T03:27:55.048Z,0
2016-06-23T03:28:53.857Z,0
2016-06-23T03:29:54.467Z,0
2016-06-23T03:30:54.487Z,0
2016-06-23T03:31:54.522Z,0
2016-06-23T03:32:54.506Z,0
2016-06-23T03:33:53.946Z,0
2016-06-23T03:34:53.917Z,0
2016-06-23T03:35:54.528Z,0
2016-06-23T03:36:53.963Z,4
2016-06-23T03:37:54.574Z,4
2016-06-23T03:38:53.980Z,4
2016-06-23T03:39:53.989Z,4
2016-06-23T03:40:54.598Z,4
2016-06-23T03:41:53.406Z,4
2016-06-23T03:42:54.015Z,4
2016-06-23T03:43:55.218Z,4
2016-06-23T03:44:54.022Z,4
2016-06-23T03:45:54.647Z,4
2016-06-23T03:46:55.254Z,4
2016-06-23T03:47:54.672Z,0
2016-06-23T03:48:54.682Z,0
2016-06-23T03:49:54.086Z,0
2016-06-23T03:50:54.718Z,4
2016-06-23T03:51:54.124Z,4
2016-06-23T03:52:55.329Z,4
2016-06-23T03:53:54.715Z,4
2016-06-23T03:54:54.737Z,4
2016-06-23T03:55:54.147Z,4
2016-06-23T03:56:54.155Z,4
2016-06-23T03:57:55.362Z,4
2016-06-23T03:58:55.375Z,4
2016-06-23T03:59:54.180Z,4
2016-06-23T04:00:53.615Z,8
2016-06-23T04:01:55.401Z,4
2016-06-23T04:02:54.826Z,8
2016-06-23T04:03:53.638Z,8
2016-06-23T04:04:54.845Z,8
2016-06-23T04:05:54.255Z,12
2016-06-23T04:06:55.455Z,8
2016-06-23T04:07:54.283Z,8
2016-06-23T04:08:54.873Z,12
2016-06-23T04:09:54.287Z,8
2016-06-23T04:10:54.318Z,12
2016-06-23T04:11:54.922Z,8
2016-06-23T04:12:55.540Z,12
2016-06-23T04:13:54.930Z,12
2016-06-23T04:14:54.357Z,12
2016-06-23T04:15:53.782Z,12
2016-06-23T04:16:54.968Z,12
2016-06-23T04:17:54.365Z,12
2016-06-23T04:18:54.384Z,16
2016-06-23T04:19:55.017Z,16
2016-06-23T04:20:55.000Z,12
2016-06-23T04:21:54.463Z,16
2016-06-23T04:22:54.451Z,16
2016-06-23T04:23:54.434Z,16
2016-06-23T04:24:55.050Z,16
2016-06-23T04:25:55.687Z,16
2016-06-23T04:26:54.475Z,16
2016-06-23T04:27:55.698Z,16
2016-06-23T04:28:53.940Z,16
2016-06-23T04:29:54.497Z,16
2016-06-23T04:30:55.731Z,16
2016-06-23T04:31:53.914Z,20
2016-06-23T04:32:55.743Z,16
2016-06-23T04:33:54.548Z,16
2016-06-23T04:34:55.766Z,16
2016-06-23T04:35:53.992Z,16
2016-06-23T04:36:55.180Z,20
2016-06-23T04:37:54.603Z,20
2016-06-23T04:38:54.601Z,16
2016-06-23T04:39:54.606Z,16
2016-06-23T04:40:54.618Z,20
2016-06-23T04:41:55.231Z,16
2016-06-23T04:42:55.847Z,16
2016-06-23T04:43:55.261Z,16
2016-06-23T04:44:55.888Z,16
2016-06-23T04:45:55.878Z,16
2016-06-23T04:46:54.689Z,16
2016-06-23T04:47:54.712Z,16
2016-06-23T04:48:55.302Z,16
2016-06-23T04:49:54.710Z,16
2016-06-23T04:50:55.926Z,16
2016-06-23T04:51:54.763Z,16
2016-06-23T04:52:55.340Z,12
2016-06-23T04:53:54.178Z,16
2016-06-23T04:54:54.168Z,16
2016-06-23T04:55:54.784Z,16
2016-06-23T04:56:55.398Z,16
2016-06-23T04:57:56.000Z,16
2016-06-23T04:58:55.441Z,16
2016-06-23T04:59:55.432Z,16
2016-06-23T05:00:56.028Z,16
2016-06-23T05:01:54.869Z,16
2016-06-23T05:02:55.455Z,16
2016-06-23T05:03:55.454Z,16
2016-06-23T05:04:56.074Z,16
2016-06-23T05:05:55.490Z,16
2016-06-23T05:06:54.895Z,16
2016-06-23T05:07:54.918Z,16
2016-06-23T05:08:54.910Z,16
2016-06-23T05:09:55.545Z,12
2016-06-23T05:10:55.527Z,12
2016-06-23T05:11:55.571Z,12
2016-06-23T05:12:54.358Z,12
2016-06-23T05:13:55.034Z,12
2016-06-23T05:14:54.992Z,12
2016-06-23T05:15:54.988Z,12
2016-06-23T05:16:55.019Z,12
2016-06-23T05:17:55.647Z,12
2016-06-23T05:18:55.628Z,12
2016-06-23T05:19:55.637Z,12
2016-06-23T05:20:56.240Z,12
2016-06-23T05:21:55.661Z,12
2016-06-23T05:22:54.486Z,12
2016-06-23T05:23:56.279Z,12
2016-06-23T05:24:56.295Z,12
2016-06-23T05:25:55.703Z,12
2016-06-23T05:26:56.318Z,12
2016-06-23T05:27:55.154Z,12
2016-06-23T05:28:55.746Z,12
2016-06-23T05:29:55.729Z,16
2016-06-23T05:30:54.577Z,16
2016-06-23T05:31:55.795Z,16
2016-06-23T05:32:55.173Z,12
2016-06-23T05:33:55.212Z,12
2016-06-23T05:34:54.614Z,16
2016-06-23T05:35:54.616Z,16
2016-06-23T05:36:56.443Z,16
2016-06-23T05:37:56.438Z,16
2016-06-23T05:38:55.824Z,16
2016-06-23T05:39:55.253Z,16
2016-06-23T05:40:55.864Z,16
2016-06-23T05:41:55.872Z,12
2016-06-23T05:42:55.868Z,12
2016-06-23T05:43:56.483Z,12
2016-06-23T05:44:55.909Z,12
2016-06-23T05:45:55.928Z,12
2016-06-23T05:46:54.724Z,12
2016-06-23T05:47:55.341Z,12
2016-06-23T05:48:55.354Z,12
2016-06-23T05:49:56.561Z,12
2016-06-23T05:50:56.570Z,12
2016-06-23T05:51:55.995Z,12
2016-06-23T05:52:54.810Z,12
2016-06-23T05:53:55.989Z,12
2016-06-23T05:54:54.820Z,12
2016-06-23T05:55:56.613Z,12
2016-06-23T05:56:55.434Z,12
2016-06-23T05:57:56.035Z,12
2016-06-23T05:58:56.071Z,12
2016-06-23T05:59:55.499Z,12
2016-06-23T06:00:54.876Z,12
2016-06-23T06:01:55.513Z,12
2016-06-23T06:02:56.691Z,12
2016-06-23T06:03:56.110Z,12
2016-06-23T06:04:55.519Z,12
2016-06-23T06:05:55.540Z,12
2016-06-23T06:06:55.539Z,12
2016-06-23T06:07:56.157Z,12
2016-06-23T06:08:56.163Z,12
2016-06-23T06:09:55.579Z,12
2016-06-23T06:10:56.769Z,12
2016-06-23T06:11:56.202Z,12
2016-06-23T06:12:56.198Z,12
2016-06-23T06:13:55.121Z,12
2016-06-23T06:14:56.834Z,12
2016-06-23T06:15:56.245Z,12
2016-06-23T06:16:55.053Z,12
2016-06-23T06:17:56.265Z,12
2016-06-23T06:18:55.701Z,16
2016-06-23T06:19:56.882Z,12
2016-06-23T06:20:55.137Z,12
2016-06-23T06:21:56.322Z,12
2016-06-23T06:22:56.325Z,12
2016-06-23T06:23:56.350Z,12
2016-06-23T06:24:55.148Z,12
2016-06-23T06:25:56.369Z,16
2016-06-23T06:26:55.794Z,16
2016-06-23T06:27:56.373Z,16
2016-06-23T06:28:56.974Z,16
2016-06-23T06:29:57.050Z,16
2016-06-23T06:30:55.197Z,16
2016-06-23T06:31:55.858Z,12
2016-06-23T06:32:56.471Z,12
2016-06-23T06:33:56.437Z,12
2016-06-23T06:34:55.841Z,12
2016-06-23T06:35:55.863Z,12
2016-06-23T06:36:56.473Z,12
2016-06-23T06:37:57.082Z,12
2016-06-23T06:38:55.881Z,12
2016-06-23T06:39:55.353Z,12
2016-06-23T06:40:55.936Z,12
2016-06-23T06:41:57.153Z,12
2016-06-23T06:42:56.515Z,12
2016-06-23T06:43:57.159Z,12
2016-06-23T06:44:55.359Z,12
2016-06-23T06:45:56.579Z,12
2016-06-23T06:46:55.969Z,12
2016-06-23T06:47:57.195Z,12
2016-06-23T06:48:56.607Z,12
2016-06-23T06:49:56.595Z,12
2016-06-23T06:50:57.220Z,12
2016-06-23T06:51:56.026Z,12
2016-06-23T06:52:56.033Z,12
2016-06-23T06:53:56.647Z,12
2016-06-23T06:54:56.688Z,12
2016-06-23T06:55:56.665Z,12
2016-06-23T06:56:56.081Z,12
2016-06-23T06:57:56.084Z,12
2016-06-23T06:58:56.698Z,12
2016-06-23T06:59:55.518Z,12
2016-06-23T07:00:57.338Z,12
2016-06-23T07:01:56.134Z,12
2016-06-23T07:02:56.764Z,12
2016-06-23T07:03:57.364Z,12
2016-06-23T07:04:56.162Z,12
2016-06-23T07:05:57.403Z,12
2016-06-23T07:06:56.185Z,12
2016-06-23T07:07:56.204Z,12
2016-06-23T07:08:57.420Z,12
2016-06-23T07:09:57.427Z,12
2016-06-23T07:10:57.424Z,12
2016-06-23T07:11:56.840Z,12
2016-06-23T07:12:56.831Z,12
2016-06-23T07:13:56.926Z,12
2016-06-23T07:14:56.879Z,12
2016-06-23T07:15:56.900Z,12
2016-06-23T07:16:56.888Z,12
2016-06-23T07:17:56.321Z,12
2016-06-23T07:18:56.315Z,12
2016-06-23T07:19:56.327Z,12
2016-06-23T07:20:56.344Z,12
2016-06-23T07:21:57.539Z,12
2016-06-23T07:22:56.349Z,12
2016-06-23T07:23:56.365Z,12
2016-06-23T07:24:56.979Z,12
2016-06-23T07:25:56.382Z,12
2016-06-23T07:26:57.007Z,12
2016-06-23T07:27:57.026Z,8
2016-06-23T07:28:57.026Z,12
2016-06-23T07:29:55.836Z,12
2016-06-23T07:30:56.451Z,12
2016-06-23T07:31:57.039Z,12
2016-06-23T07:32:56.456Z,12
2016-06-23T07:33:57.671Z,12
2016-06-23T07:34:57.098Z,12
2016-06-23T07:35:55.926Z,12
2016-06-23T07:36:57.722Z,12
2016-06-23T07:37:56.556Z,12
2016-06-23T07:38:56.533Z,12
2016-06-23T07:39:56.531Z,12
2016-06-23T07:40:55.961Z,12
2016-06-23T07:41:57.160Z,12
2016-06-23T07:42:57.803Z,12
2016-06-23T07:43:57.203Z,12
2016-06-23T07:44:57.238Z,16
2016-06-23T07:45:57.227Z,16
2016-06-23T07:46:57.226Z,16
2016-06-23T07:47:56.703Z,16
2016-06-23T07:48:57.275Z,16
2016-06-23T07:49:57.842Z,16
2016-06-23T07:50:56.652Z,16
2016-06-23T07:51:57.295Z,16
2016-06-23T07:52:56.088Z,16
2016-06-23T07:53:57.283Z,16
2016-06-23T07:54:57.305Z,16
2016-06-23T07:55:57.314Z,16
2016-06-23T07:56:57.941Z,16
2016-06-23T07:57:56.724Z,16
2016-06-23T07:58:57.344Z,16
2016-06-23T07:59:56.787Z,16
2016-06-23T08:00:57.386Z,16
2016-06-23T08:01:57.370Z,12
2016-06-23T08:02:56.787Z,12
2016-06-23T08:03:57.409Z,16
2016-06-23T08:04:57.993Z,16
2016-06-23T08:05:56.829Z,16
2016-06-23T08:06:56.832Z,16
2016-06-23T08:07:58.042Z,16
2016-06-23T08:08:56.338Z,16
2016-06-23T08:09:57.106Z,16
2016-06-23T08:10:57.491Z,16
2016-06-23T08:11:58.066Z,16
2016-06-23T08:12:57.504Z,16
2016-06-23T08:13:57.489Z,16
2016-06-23T08:14:56.915Z,16
2016-06-23T08:15:57.554Z,16
2016-06-23T08:16:58.139Z,16
2016-06-23T08:17:57.550Z,16
2016-06-23T08:18:58.156Z,16
2016-06-23T08:19:57.566Z,16
2016-06-23T08:20:58.193Z,20
2016-06-23T08:21:56.979Z,20
2016-06-23T08:22:57.009Z,20
2016-06-23T08:23:57.012Z,20
2016-06-23T08:24:57.019Z,16
2016-06-23T08:25:57.035Z,16
2016-06-23T08:26:58.240Z,16
2016-06-23T08:27:57.646Z,16
2016-06-23T08:28:57.068Z,16
2016-06-23T08:29:57.674Z,16
2016-06-23T08:30:58.287Z,16
2016-06-23T08:31:58.309Z,16
2016-06-23T08:32:57.068Z,20
2016-06-23T08:33:56.542Z,20
2016-06-23T08:34:58.319Z,20
2016-06-23T08:35:57.131Z,20
2016-06-23T08:36:58.349Z,20
2016-06-23T08:37:57.793Z,20
2016-06-23T08:38:57.754Z,20
2016-06-23T08:39:56.573Z,20
2016-06-23T08:40:57.782Z,20
2016-06-23T08:41:57.835Z,20
2016-06-23T08:42:57.211Z,20
2016-06-23T08:43:57.837Z,20
2016-06-23T08:44:57.229Z,20
2016-06-23T08:45:57.217Z,20
2016-06-23T08:46:57.841Z,20
2016-06-23T08:47:56.664Z,20
2016-06-23T08:48:57.875Z,20
2016-06-23T08:49:57.903Z,20
2016-06-23T08:50:57.297Z,20
2016-06-23T08:51:57.326Z,20
2016-06-23T08:52:57.341Z,24
2016-06-23T08:53:57.950Z,24
2016-06-23T08:54:57.333Z,16
2016-06-23T08:55:57.352Z,20
2016-06-23T08:56:57.971Z,124
2016-06-23T08:57:56.783Z,36
2016-06-23T08:58:58.570Z,16
2016-06-23T08:59:58.611Z,24
2016-06-23T09:00:58.031Z,24
2016-06-23T09:01:58.615Z,24
2016-06-23T09:02:57.454Z,28
2016-06-23T09:03:57.417Z,24
2016-06-23T09:04:57.450Z,24
2016-06-23T09:05:58.072Z,24
2016-06-23T09:06:58.914Z,28
2016-06-23T09:07:57.472Z,28
2016-06-23T09:08:57.506Z,24
2016-06-23T09:09:58.109Z,24
2016-06-23T09:10:58.114Z,24
2016-06-23T09:11:58.134Z,24
2016-06-23T09:12:57.539Z,24
2016-06-23T09:13:58.327Z,24
2016-06-23T09:14:58.774Z,28
2016-06-23T09:15:58.769Z,24
2016-06-23T09:16:58.230Z,24
2016-06-23T09:17:57.020Z,24
2016-06-23T09:18:57.607Z,24
2016-06-23T09:19:57.622Z,24
2016-06-23T09:20:57.629Z,24
2016-06-23T09:21:57.031Z,28
2016-06-23T09:22:58.253Z,24
2016-06-23T09:23:58.253Z,24
2016-06-23T09:24:57.677Z,28
2016-06-23T09:25:58.285Z,28
2016-06-23T09:26:58.301Z,24
2016-06-23T09:27:58.890Z,28
2016-06-23T09:28:57.706Z,28
2016-06-23T09:29:58.326Z,28
2016-06-23T09:30:58.331Z,24
2016-06-23T09:31:58.954Z,28
2016-06-23T09:32:58.376Z,24
2016-06-23T09:33:57.779Z,28
2016-06-23T09:34:57.779Z,24
2016-06-23T09:35:57.799Z,24
2016-06-23T09:36:57.795Z,24
2016-06-23T09:37:57.824Z,24
2016-06-23T09:38:58.451Z,24
2016-06-23T09:39:58.452Z,24
2016-06-23T09:40:57.852Z,24
2016-06-23T09:41:58.466Z,28
2016-06-23T09:42:57.873Z,24
2016-06-23T09:43:57.293Z,28
2016-06-23T09:44:59.090Z,24
2016-06-23T09:45:57.299Z,28
2016-06-23T09:46:59.093Z,28
2016-06-23T09:47:58.517Z,28
2016-06-23T09:48:59.138Z,24
2016-06-23T09:49:58.551Z,28
2016-06-23T09:50:57.951Z,28
2016-06-23T09:51:59.170Z,28
2016-06-23T09:52:58.570Z,28
2016-06-23T09:53:59.196Z,28
2016-06-23T09:54:59.200Z,28
2016-06-23T09:55:59.204Z,28
2016-06-23T09:56:59.206Z,28
2016-06-23T09:57:58.629Z,28
2016-06-23T09:58:58.623Z,28
2016-06-23T09:59:59.298Z,28
2016-06-23T10:00:58.087Z,28
2016-06-23T10:01:59.272Z,28
2016-06-23T10:02:59.275Z,28
2016-06-23T10:03:58.089Z,28
2016-06-23T10:04:58.107Z,28
2016-06-23T10:05:57.540Z,28
2016-06-23T10:06:58.126Z,28
2016-06-23T10:07:58.749Z,28
2016-06-23T10:08:58.956Z,28
2016-06-23T10:09:58.784Z,28
2016-06-23T10:10:58.171Z,28
2016-06-23T10:11:58.191Z,28
2016-06-23T10:12:59.409Z,28
2016-06-23T10:13:57.598Z,28
2016-06-23T10:14:58.222Z,28
2016-06-23T10:15:58.223Z,28
2016-06-23T10:16:59.439Z,28
2016-06-23T10:17:58.847Z,28
2016-06-23T10:18:58.835Z,28
2016-06-23T10:19:58.868Z,28
2016-06-23T10:20:58.882Z,28
2016-06-23T10:21:58.310Z,28
2016-06-23T10:22:59.514Z,28
2016-06-23T10:23:58.305Z,28
2016-06-23T10:24:58.941Z,28
2016-06-23T10:25:59.548Z,28
2016-06-23T10:26:59.552Z,28
2016-06-23T10:27:58.358Z,28
2016-06-23T10:28:59.563Z,28
2016-06-23T10:29:58.966Z,28
2016-06-23T10:30:59.009Z,28
2016-06-23T10:31:59.621Z,28
2016-06-23T10:32:58.414Z,28
2016-06-23T10:33:59.042Z,28
2016-06-23T10:34:59.059Z,32
2016-06-23T10:35:58.447Z,32
2016-06-23T10:36:59.660Z,32
2016-06-23T10:37:59.659Z,28
2016-06-23T10:38:59.100Z,32
2016-06-23T10:39:59.084Z,32
2016-06-23T10:40:57.886Z,32
2016-06-23T10:41:59.124Z,32
2016-06-23T10:42:59.120Z,32
2016-06-23T10:43:58.530Z,32
2016-06-23T10:44:58.555Z,32
2016-06-23T10:45:58.534Z,28
2016-06-23T10:46:59.776Z,28
2016-06-23T10:47:59.154Z,32
2016-06-23T10:48:59.175Z,28
2016-06-23T10:49:59.195Z,32
2016-06-23T10:50:59.194Z,32
2016-06-23T10:51:58.630Z,32
2016-06-23T10:52:59.822Z,32
2016-06-23T10:53:59.252Z,32
2016-06-23T10:54:59.846Z,32
2016-06-23T10:55:59.263Z,32
2016-06-23T10:56:58.688Z,32
2016-06-23T10:57:59.290Z,32
2016-06-23T10:58:59.898Z,28
2016-06-23T10:59:58.109Z,32
2016-06-23T11:00:59.311Z,32
2016-06-23T11:01:59.919Z,28
2016-06-23T11:02:59.334Z,28
2016-06-23T11:03:59.962Z,28
2016-06-23T11:04:58.760Z,32
2016-06-23T11:05:58.175Z,32
2016-06-23T11:06:59.390Z,32
2016-06-23T11:07:58.794Z,28
2016-06-23T11:08:58.809Z,32
2016-06-23T11:10:00.023Z,32
2016-06-23T11:10:58.837Z,32
2016-06-23T11:11:58.838Z,28
2016-06-23T11:12:59.457Z,28
2016-06-23T11:13:59.482Z,32
2016-06-23T11:15:00.104Z,32
2016-06-23T11:15:58.883Z,32
2016-06-23T11:16:59.499Z,28
2016-06-23T11:17:58.907Z,28
2016-06-23T11:18:59.511Z,32
2016-06-23T11:19:58.343Z,32
2016-06-23T11:20:59.554Z,32
2016-06-23T11:21:58.963Z,32
2016-06-23T11:22:58.966Z,32
2016-06-23T11:23:59.611Z,28
2016-06-23T11:24:59.610Z,32
2016-06-23T11:25:59.005Z,32
2016-06-23T11:26:58.427Z,32
2016-06-23T11:27:59.615Z,32
2016-06-23T11:28:59.624Z,32
2016-06-23T11:29:59.042Z,32
2016-06-23T11:30:59.643Z,32
2016-06-23T11:31:59.053Z,32
2016-06-23T11:32:59.063Z,32
2016-06-23T11:33:59.095Z,32
2016-06-23T11:35:00.309Z,32
2016-06-23T11:36:00.295Z,32
2016-06-23T11:37:00.310Z,32
2016-06-23T11:37:59.127Z,32
2016-06-23T11:38:59.727Z,28
2016-06-23T11:39:59.730Z,128
2016-06-23T11:40:59.757Z,128
2016-06-23T11:41:59.791Z,128
2016-06-23T11:42:59.768Z,124
2016-06-23T11:43:59.786Z,128
2016-06-23T11:44:59.829Z,128
2016-06-23T11:45:58.604Z,124
2016-06-23T11:46:58.632Z,124
2016-06-23T11:48:00.527Z,128
2016-06-23T11:48:59.848Z,128
2016-06-23T11:49:59.286Z,128
2016-06-23T11:50:59.293Z,124
2016-06-23T11:51:59.276Z,124
2016-06-23T11:52:59.890Z,124
2016-06-23T11:53:59.328Z,128
2016-06-23T11:54:59.939Z,124
2016-06-23T11:55:59.955Z,128
2016-06-23T11:56:59.960Z,124
2016-06-23T11:58:00.534Z,124
2016-06-23T11:58:59.408Z,124
2016-06-23T11:59:58.779Z,128
2016-06-23T12:00:59.985Z,128
2016-06-23T12:02:00.589Z,124
2016-06-23T12:02:59.999Z,128
2016-06-23T12:04:00.023Z,128
2016-06-23T12:05:00.053Z,128
2016-06-23T12:06:00.680Z,128
2016-06-23T12:06:58.862Z,124
2016-06-23T12:07:59.483Z,128
2016-06-23T12:09:00.693Z,124
2016-06-23T12:09:58.906Z,124
2016-06-23T12:11:00.103Z,124
2016-06-23T12:12:00.127Z,124
2016-06-23T12:13:00.749Z,124
2016-06-23T12:14:00.721Z,124
2016-06-23T12:14:59.561Z,124
2016-06-23T12:15:59.570Z,124
2016-06-23T12:17:00.165Z,124
2016-06-23T12:18:00.784Z,124
2016-06-23T12:19:00.199Z,124
2016-06-23T12:19:59.674Z,124
2016-06-23T12:20:59.638Z,124
2016-06-23T12:22:00.245Z,124
2016-06-23T12:23:00.245Z,124
2016-06-23T12:24:00.284Z,124
2016-06-23T12:25:00.888Z,124
2016-06-23T12:26:00.864Z,124
2016-06-23T12:27:00.354Z,124
2016-06-23T12:28:00.284Z,124
2016-06-23T12:29:00.927Z,124
2016-06-23T12:30:00.334Z,124
2016-06-23T12:31:00.953Z,124
2016-06-23T12:31:59.763Z,120
2016-06-23T12:32:59.762Z,124
2016-06-23T12:33:59.768Z,124
2016-06-23T12:35:00.385Z,124
2016-06-23T12:36:00.394Z,124
2016-06-23T12:37:00.418Z,124
2016-06-23T12:38:00.449Z,124
2016-06-23T12:38:59.848Z,124
2016-06-23T12:40:00.458Z,124
2016-06-23T12:40:59.869Z,124
2016-06-23T12:42:00.466Z,124
2016-06-23T12:42:59.890Z,124
2016-06-23T12:43:59.307Z,124
2016-06-23T12:44:59.298Z,124
2016-06-23T12:46:00.539Z,124
2016-06-23T12:47:00.540Z,124
2016-06-23T12:47:59.503Z,124
2016-06-23T12:49:00.647Z,120
2016-06-23T12:50:01.175Z,120
2016-06-23T12:50:59.375Z,120
2016-06-23T12:52:01.194Z,120
2016-06-23T12:53:00.610Z,120
2016-06-23T12:54:00.590Z,120
2016-06-23T12:55:01.209Z,124
2016-06-23T12:56:00.636Z,116
2016-06-23T12:57:00.693Z,120
2016-06-23T12:58:00.063Z,120
2016-06-23T12:59:01.249Z,120
2016-06-23T13:00:01.282Z,120
2016-06-23T13:01:00.691Z,8
2016-06-23T13:02:00.709Z,8
2016-06-23T13:03:00.717Z,8
2016-06-23T13:04:00.733Z,8
2016-06-23T13:05:00.138Z,12
2016-06-23T13:06:01.356Z,12
2016-06-23T13:07:00.763Z,12
2016-06-23T13:08:00.766Z,12
2016-06-23T13:09:01.398Z,12
2016-06-23T13:10:00.223Z,12
2016-06-23T13:11:00.201Z,12
2016-06-23T13:12:00.228Z,12
2016-06-23T13:13:01.442Z,12
2016-06-23T13:14:00.266Z,12
2016-06-23T13:15:00.851Z,12
2016-06-23T13:16:00.859Z,12
2016-06-23T13:17:01.377Z,12
2016-06-23T13:18:00.287Z,12
2016-06-23T13:19:00.917Z,12
2016-06-23T13:20:00.917Z,12
2016-06-23T13:21:00.328Z,12
2016-06-23T13:22:00.340Z,12
2016-06-23T13:23:01.539Z,12
2016-06-23T13:24:00.971Z,12
2016-06-23T13:25:01.570Z,12
2016-06-23T13:26:01.002Z,12
2016-06-23T13:27:00.396Z,12
2016-06-23T13:28:01.606Z,12
2016-06-23T13:29:01.640Z,12
2016-06-23T13:30:01.636Z,12
2016-06-23T13:31:01.036Z,12
2016-06-23T13:32:01.087Z,12
2016-06-23T13:33:01.087Z,12
2016-06-23T13:34:00.510Z,12
2016-06-23T13:35:01.115Z,12
2016-06-23T13:36:00.498Z,12
2016-06-23T13:37:01.101Z,12
2016-06-23T13:37:59.951Z,12
2016-06-23T13:39:01.155Z,12
2016-06-23T13:40:00.559Z,12
2016-06-23T13:41:01.163Z,12
2016-06-23T13:42:01.203Z,12
2016-06-23T13:43:00.595Z,12
2016-06-23T13:44:01.818Z,12
2016-06-23T13:45:01.841Z,12
2016-06-23T13:46:00.623Z,12
2016-06-23T13:47:01.847Z,12
2016-06-23T13:48:00.089Z,12
2016-06-23T13:49:01.901Z,8
2016-06-23T13:50:00.108Z,8
2016-06-23T13:51:01.278Z,8
2016-06-23T13:52:01.311Z,8
2016-06-23T13:53:00.710Z,8
2016-06-23T13:54:01.343Z,8
2016-06-23T13:55:02.187Z,8
2016-06-23T13:56:00.159Z,8
2016-06-23T13:57:01.372Z,8
2016-06-23T13:58:00.834Z,12
2016-06-23T13:59:02.251Z,12
2016-06-23T14:00:00.799Z,12
2016-06-23T14:01:02.002Z,12
2016-06-23T14:02:02.356Z,8
2016-06-23T14:03:02.354Z,8
2016-06-23T14:04:01.817Z,8
2016-06-23T14:05:01.467Z,8
2016-06-23T14:06:02.074Z,8
2016-06-23T14:07:01.484Z,8
2016-06-23T14:08:00.299Z,8
2016-06-23T14:09:01.511Z,8
2016-06-23T14:10:02.109Z,8
2016-06-23T14:11:00.328Z,8
2016-06-23T14:12:00.954Z,8
2016-06-23T14:13:01.560Z,8
2016-06-23T14:14:01.554Z,8
2016-06-23T14:15:01.123Z,8
2016-06-23T14:16:01.587Z,8
2016-06-23T14:17:01.917Z,8
2016-06-23T14:18:01.014Z,8
2016-06-23T14:19:02.372Z,8
2016-06-23T14:20:01.640Z,8
2016-06-23T14:21:01.042Z,8
2016-06-23T14:22:01.049Z,8
2016-06-23T14:23:01.070Z,8